Arviat Airport
CYEK : now visible

Airfield :











YOU CAN JOIN US ON...

 
LOGIN :

Register | Disclaimer

   EN    FR    IT 

 









Legend :    VFR   Marginal VFR   IFR   Intensive IFR   Very Intensive IFR
Visi :
Ceiling :
>= 8 km
>= 3000ft
5 to 8 km
1000 to 3000 ft
1500m to 5 km
500 to 1000 ft
800 to 1500m
200 to 500 ft
< 800m
< 200 ft
Symbols :   Thunderstorms  Fog  Heavy snow  Heavy precipitations  Wind > 20 kt






- Airport Elevation : 32 ft
- IATA code : YEK


CYEK - Arviat

CURRENT METAR :
  • 100600Z AUTO 05004KT 6SM -SN OVC003 M16/M18 A3011 RMK SLP198

EXPIRED METARs :
  • 100554Z AUTO 05004KT 6SM -SN OVC003 M16/M18 A3011 RMK SLP198
  • 100546Z AUTO 06003KT 030V120 6SM -SN OVC003 M15/M17 A3011 RMK SLP201
  • 100535Z AUTO VRB02KT 1 1/2SM -SN OVC003 M15/M16 A3011 RMK VIS VRB 3/4-3 SLP201
  • 100513Z AUTO 00000KT 1SM -SN VV004 M16/M17 A3012 RMK SLP202
  • 100505Z AUTO 09003KT 1 1/4SM -SN OVC005 M16/M17 A3012 RMK SLP202
  • 100459Z AUTO 10003KT 2 1/4SM -SN OVC005 M16/M18 A3012 RMK SLP202
  • 100440Z AUTO 10004KT 9SM -SN BKN005 M17/M18 A3012 RMK SLP202
  • 100400Z AUTO 11003KT 9SM CLR M16/M17 A3012 RMK SLP203

TAF TAF CYEK
Valid from the 10 at 06:00 until the 10 at 18:00 UTC


100541Z 1006/1018 VRB03KT P6SM BKN010
TEMPO 1006/1018 3SM -SN BR OVC005
BECMG 1010/1012 11010KT RMK FCST BASED ON AUTO OBS. NXT FCST BY 101200Z



MET'MAP, your aeronautical weather chart ! - Copyright ORBIFLY December 2007 - Disclaimer

ORBIFLY MET'MAP TEAM :

Programming & Development : Alexandra Zaïnal
Concept & original design : Baudouin d'Aumeries
Assistance for programming : Marc-Olivier Méhu
Technical & hardware support : Manuel Goepfert

Contact : metmap@orbifly.com




SOURCES & CREDITS :

   NOAA       Earth
Advisory